sensor_id;sensor_type;location;lat;lon;timestamp;P1;durP1;ratioP1;P2;durP2;ratioP2
5060;SDS011;2549;52.128;21.068;2023-12-20T00:02:17;10.07;;;6.78;;
5060;SDS011;2549;52.128;21.068;2023-12-20T00:04:43;9.83;;;6.40;;
5060;SDS011;2549;52.128;21.068;2023-12-20T00:07:10;10.32;;;6.60;;
5060;SDS011;2549;52.128;21.068;2023-12-20T00:09:38;8.10;;;5.57;;
5060;SDS011;2549;52.128;21.068;2023-12-20T00:12:05;7.70;;;5.90;;
5060;SDS011;2549;52.128;21.068;2023-12-20T00:14:32;5.85;;;5.15;;
5060;SDS011;2549;52.128;21.068;2023-12-20T00:16:58;10.52;;;5.15;;
5060;SDS011;2549;52.128;21.068;2023-12-20T00:19:25;7.57;;;5.18;;
5060;SDS011;2549;52.128;21.068;2023-12-20T00:21:52;12.88;;;4.45;;
5060;SDS011;2549;52.128;21.068;2023-12-20T00:24:19;8.25;;;5.65;;
5060;SDS011;2549;52.128;21.068;2023-12-20T00:26:46;6.28;;;4.70;;
5060;SDS011;2549;52.128;21.068;2023-12-20T00:29:13;6.68;;;4.97;;
5060;SDS011;2549;52.128;21.068;2023-12-20T00:31:40;11.18;;;5.45;;
5060;SDS011;2549;52.128;21.068;2023-12-20T00:34:07;9.23;;;5.07;;
5060;SDS011;2549;52.128;21.068;2023-12-20T00:36:34;10.57;;;4.45;;
5060;SDS011;2549;52.128;21.068;2023-12-20T00:39:01;8.88;;;5.10;;
5060;SDS011;2549;52.128;21.068;2023-12-20T00:41:28;4.50;;;4.10;;
5060;SDS011;2549;52.128;21.068;2023-12-20T00:43:55;9.23;;;6.05;;
5060;SDS011;2549;52.128;21.068;2023-12-20T00:46:22;6.95;;;5.05;;
5060;SDS011;2549;52.128;21.068;2023-12-20T00:48:49;4.05;;;3.70;;
5060;SDS011;2549;52.128;21.068;2023-12-20T00:51:16;4.95;;;4.50;;
5060;SDS011;2549;52.128;21.068;2023-12-20T00:53:42;5.63;;;4.32;;
5060;SDS011;2549;52.128;21.068;2023-12-20T00:56:09;4.22;;;3.67;;
5060;SDS011;2549;52.128;21.068;2023-12-20T00:58:36;5.75;;;4.30;;
5060;SDS011;2549;52.128;21.068;2023-12-20T01:01:03;10.43;;;4.18;;
5060;SDS011;2549;52.128;21.068;2023-12-20T01:03:30;5.07;;;4.18;;
5060;SDS011;2549;52.128;21.068;2023-12-20T01:05:57;4.40;;;4.00;;
5060;SDS011;2549;52.128;21.068;2023-12-20T01:08:24;6.75;;;4.60;;
5060;SDS011;2549;52.128;21.068;2023-12-20T01:10:51;4.28;;;3.88;;
5060;SDS011;2549;52.128;21.068;2023-12-20T01:13:18;5.60;;;4.07;;
5060;SDS011;2549;52.128;21.068;2023-12-20T01:15:45;4.85;;;4.10;;
5060;SDS011;2549;52.128;21.068;2023-12-20T01:18:14;5.25;;;4.20;;
5060;SDS011;2549;52.128;21.068;2023-12-20T01:20:41;5.30;;;4.50;;
5060;SDS011;2549;52.128;21.068;2023-12-20T01:23:08;10.30;;;4.47;;
5060;SDS011;2549;52.128;21.068;2023-12-20T01:25:35;6.60;;;4.18;;
5060;SDS011;2549;52.128;21.068;2023-12-20T01:28:01;5.68;;;4.28;;
5060;SDS011;2549;52.128;21.068;2023-12-20T01:30:29;5.00;;;4.20;;
5060;SDS011;2549;52.128;21.068;2023-12-20T01:32:56;4.60;;;4.03;;
5060;SDS011;2549;52.128;21.068;2023-12-20T01:35:23;4.47;;;4.07;;
5060;SDS011;2549;52.128;21.068;2023-12-20T01:37:50;5.10;;;3.95;;
5060;SDS011;2549;52.128;21.068;2023-12-20T01:40:17;4.40;;;3.75;;
5060;SDS011;2549;52.128;21.068;2023-12-20T01:42:44;8.32;;;4.18;;
5060;SDS011;2549;52.128;21.068;2023-12-20T01:45:11;7.40;;;4.43;;
5060;SDS011;2549;52.128;21.068;2023-12-20T01:47:38;11.43;;;4.53;;
5060;SDS011;2549;52.128;21.068;2023-12-20T01:50:05;8.18;;;4.40;;
5060;SDS011;2549;52.128;21.068;2023-12-20T01:52:34;5.77;;;4.20;;
5060;SDS011;2549;52.128;21.068;2023-12-20T01:55:02;3.90;;;3.55;;
5060;SDS011;2549;52.128;21.068;2023-12-20T01:57:30;3.60;;;3.30;;
5060;SDS011;2549;52.128;21.068;2023-12-20T01:59:57;6.30;;;4.18;;
5060;SDS011;2549;52.128;21.068;2023-12-20T02:02:25;6.97;;;4.07;;
5060;SDS011;2549;52.128;21.068;2023-12-20T02:04:54;9.23;;;3.22;;
5060;SDS011;2549;52.128;21.068;2023-12-20T02:07:22;5.55;;;3.50;;
5060;SDS011;2549;52.128;21.068;2023-12-20T02:09:49;9.60;;;4.70;;
5060;SDS011;2549;52.128;21.068;2023-12-20T02:12:16;6.05;;;4.10;;
5060;SDS011;2549;52.128;21.068;2023-12-20T02:14:43;5.63;;;3.20;;
5060;SDS011;2549;52.128;21.068;2023-12-20T02:17:10;5.43;;;3.70;;
5060;SDS011;2549;52.128;21.068;2023-12-20T02:19:37;5.20;;;3.90;;
5060;SDS011;2549;52.128;21.068;2023-12-20T02:22:06;3.72;;;3.35;;
5060;SDS011;2549;52.128;21.068;2023-12-20T02:24:37;4.22;;;3.83;;
5060;SDS011;2549;52.128;21.068;2023-12-20T02:27:08;4.55;;;3.45;;
5060;SDS011;2549;52.128;21.068;2023-12-20T02:29:35;5.60;;;3.72;;
5060;SDS011;2549;52.128;21.068;2023-12-20T02:32:02;7.07;;;3.45;;
5060;SDS011;2549;52.128;21.068;2023-12-20T02:34:29;6.72;;;4.45;;
5060;SDS011;2549;52.128;21.068;2023-12-20T02:36:56;5.38;;;4.05;;
5060;SDS011;2549;52.128;21.068;2023-12-20T02:39:23;10.27;;;4.30;;
5060;SDS011;2549;52.128;21.068;2023-12-20T02:41:50;5.82;;;4.13;;
5060;SDS011;2549;52.128;21.068;2023-12-20T02:44:17;6.65;;;4.07;;
5060;SDS011;2549;52.128;21.068;2023-12-20T02:46:44;5.83;;;3.83;;
5060;SDS011;2549;52.128;21.068;2023-12-20T02:49:11;6.07;;;3.80;;
5060;SDS011;2549;52.128;21.068;2023-12-20T02:51:38;3.63;;;3.25;;
5060;SDS011;2549;52.128;21.068;2023-12-20T02:54:05;6.30;;;3.80;;
5060;SDS011;2549;52.128;21.068;2023-12-20T02:56:32;7.35;;;3.20;;
5060;SDS011;2549;52.128;21.068;2023-12-20T02:58:59;5.32;;;3.35;;
5060;SDS011;2549;52.128;21.068;2023-12-20T03:01:27;3.97;;;3.10;;
5060;SDS011;2549;52.128;21.068;2023-12-20T03:03:55;4.57;;;4.00;;
5060;SDS011;2549;52.128;21.068;2023-12-20T03:06:22;3.22;;;3.00;;
5060;SDS011;2549;52.128;21.068;2023-12-20T03:08:49;3.92;;;3.20;;
5060;SDS011;2549;52.128;21.068;2023-12-20T03:11:16;2.80;;;2.60;;
5060;SDS011;2549;52.128;21.068;2023-12-20T03:13:43;4.00;;;3.60;;
5060;SDS011;2549;52.128;21.068;2023-12-20T03:16:10;4.55;;;3.65;;
5060;SDS011;2549;52.128;21.068;2023-12-20T03:18:38;5.43;;;4.18;;
5060;SDS011;2549;52.128;21.068;2023-12-20T03:21:05;4.13;;;3.28;;
5060;SDS011;2549;52.128;21.068;2023-12-20T03:23:32;3.78;;;3.00;;
5060;SDS011;2549;52.128;21.068;2023-12-20T03:25:59;4.22;;;2.90;;
5060;SDS011;2549;52.128;21.068;2023-12-20T03:28:27;3.38;;;3.08;;
5060;SDS011;2549;52.128;21.068;2023-12-20T03:30:54;4.38;;;3.03;;
5060;SDS011;2549;52.128;21.068;2023-12-20T03:33:21;11.20;;;3.50;;
5060;SDS011;2549;52.128;21.068;2023-12-20T03:35:48;2.47;;;2.33;;
5060;SDS011;2549;52.128;21.068;2023-12-20T03:38:15;8.17;;;3.07;;
5060;SDS011;2549;52.128;21.068;2023-12-20T03:40:42;3.55;;;3.25;;
5060;SDS011;2549;52.128;21.068;2023-12-20T03:43:09;3.88;;;3.42;;
5060;SDS011;2549;52.128;21.068;2023-12-20T03:45:35;3.42;;;2.80;;
5060;SDS011;2549;52.128;21.068;2023-12-20T03:48:02;2.90;;;2.67;;
5060;SDS011;2549;52.128;21.068;2023-12-20T03:50:30;2.97;;;2.70;;
5060;SDS011;2549;52.128;21.068;2023-12-20T03:52:57;2.60;;;2.50;;
5060;SDS011;2549;52.128;21.068;2023-12-20T03:55:23;2.78;;;2.58;;
5060;SDS011;2549;52.128;21.068;2023-12-20T03:57:50;2.92;;;2.72;;
5060;SDS011;2549;52.128;21.068;2023-12-20T04:00:17;2.72;;;2.53;;
5060;SDS011;2549;52.128;21.068;2023-12-20T04:02:44;2.97;;;2.50;;
5060;SDS011;2549;52.128;21.068;2023-12-20T04:05:11;3.20;;;2.90;;
5060;SDS011;2549;52.128;21.068;2023-12-20T04:07:39;2.67;;;2.33;;
5060;SDS011;2549;52.128;21.068;2023-12-20T04:10:06;2.73;;;2.20;;
5060;SDS011;2549;52.128;21.068;2023-12-20T04:12:33;3.63;;;2.53;;
5060;SDS011;2549;52.128;21.068;2023-12-20T04:15:00;3.53;;;2.30;;
5060;SDS011;2549;52.128;21.068;2023-12-20T04:17:27;2.10;;;2.00;;
5060;SDS011;2549;52.128;21.068;2023-12-20T04:19:54;4.38;;;2.10;;
5060;SDS011;2549;52.128;21.068;2023-12-20T04:22:21;2.33;;;2.13;;
5060;SDS011;2549;52.128;21.068;2023-12-20T04:24:48;2.10;;;2.00;;
5060;SDS011;2549;52.128;21.068;2023-12-20T04:27:15;2.40;;;2.10;;
5060;SDS011;2549;52.128;21.068;2023-12-20T04:29:42;2.47;;;2.27;;
5060;SDS011;2549;52.128;21.068;2023-12-20T04:32:09;2.85;;;2.65;;
5060;SDS011;2549;52.128;21.068;2023-12-20T04:34:36;2.75;;;2.00;;
5060;SDS011;2549;52.128;21.068;2023-12-20T04:37:03;2.90;;;2.35;;
5060;SDS011;2549;52.128;21.068;2023-12-20T04:39:30;2.65;;;2.30;;
5060;SDS011;2549;52.128;21.068;2023-12-20T04:41:57;2.70;;;2.58;;
5060;SDS011;2549;52.128;21.068;2023-12-20T04:44:24;2.58;;;2.33;;
5060;SDS011;2549;52.128;21.068;2023-12-20T04:46:51;2.90;;;2.70;;
5060;SDS011;2549;52.128;21.068;2023-12-20T04:49:18;2.67;;;2.47;;
5060;SDS011;2549;52.128;21.068;2023-12-20T04:51:45;3.03;;;2.58;;
5060;SDS011;2549;52.128;21.068;2023-12-20T04:54:12;2.73;;;2.53;;
5060;SDS011;2549;52.128;21.068;2023-12-20T04:56:41;2.25;;;2.15;;
5060;SDS011;2549;52.128;21.068;2023-12-20T04:59:08;2.65;;;2.45;;
5060;SDS011;2549;52.128;21.068;2023-12-20T05:01:35;3.63;;;2.35;;
5060;SDS011;2549;52.128;21.068;2023-12-20T05:04:02;2.97;;;2.60;;
5060;SDS011;2549;52.128;21.068;2023-12-20T05:06:29;2.90;;;2.10;;
5060;SDS011;2549;52.128;21.068;2023-12-20T05:08:56;3.95;;;3.47;;
5060;SDS011;2549;52.128;21.068;2023-12-20T05:11:22;3.25;;;2.17;;
5060;SDS011;2549;52.128;21.068;2023-12-20T05:13:49;2.60;;;2.40;;
5060;SDS011;2549;52.128;21.068;2023-12-20T05:16:16;4.20;;;2.70;;
5060;SDS011;2549;52.128;21.068;2023-12-20T05:18:48;2.50;;;2.40;;
5060;SDS011;2549;52.128;21.068;2023-12-20T05:21:19;2.60;;;2.20;;
5060;SDS011;2549;52.128;21.068;2023-12-20T05:23:46;3.33;;;2.90;;
5060;SDS011;2549;52.128;21.068;2023-12-20T05:26:13;5.47;;;2.63;;
5060;SDS011;2549;52.128;21.068;2023-12-20T05:28:39;3.00;;;2.63;;
5060;SDS011;2549;52.128;21.068;2023-12-20T05:31:06;3.40;;;3.15;;
5060;SDS011;2549;52.128;21.068;2023-12-20T05:33:33;3.42;;;2.88;;
5060;SDS011;2549;52.128;21.068;2023-12-20T05:36:01;2.95;;;2.63;;
5060;SDS011;2549;52.128;21.068;2023-12-20T05:38:27;3.80;;;3.15;;
5060;SDS011;2549;52.128;21.068;2023-12-20T05:40:54;4.68;;;2.72;;
5060;SDS011;2549;52.128;21.068;2023-12-20T05:43:21;10.10;;;3.00;;
5060;SDS011;2549;52.128;21.068;2023-12-20T05:45:49;2.60;;;2.40;;
5060;SDS011;2549;52.128;21.068;2023-12-20T05:48:15;3.47;;;3.17;;
5060;SDS011;2549;52.128;21.068;2023-12-20T05:50:42;3.20;;;2.75;;
5060;SDS011;2549;52.128;21.068;2023-12-20T05:53:09;2.57;;;2.37;;
5060;SDS011;2549;52.128;21.068;2023-12-20T05:55:36;3.03;;;2.80;;
5060;SDS011;2549;52.128;21.068;2023-12-20T05:58:03;3.03;;;2.65;;
5060;SDS011;2549;52.128;21.068;2023-12-20T06:00:31;3.53;;;2.95;;
5060;SDS011;2549;52.128;21.068;2023-12-20T06:02:58;3.08;;;2.85;;
5060;SDS011;2549;52.128;21.068;2023-12-20T06:05:25;2.70;;;2.50;;
5060;SDS011;2549;52.128;21.068;2023-12-20T06:07:52;2.80;;;2.60;;
5060;SDS011;2549;52.128;21.068;2023-12-20T06:10:19;5.35;;;2.88;;
5060;SDS011;2549;52.128;21.068;2023-12-20T06:12:46;2.75;;;2.65;;
5060;SDS011;2549;52.128;21.068;2023-12-20T06:15:16;3.22;;;2.97;;
5060;SDS011;2549;52.128;21.068;2023-12-20T06:17:43;3.03;;;2.38;;
5060;SDS011;2549;52.128;21.068;2023-12-20T06:20:10;3.13;;;2.55;;
5060;SDS011;2549;52.128;21.068;2023-12-20T06:22:37;2.60;;;2.50;;
5060;SDS011;2549;52.128;21.068;2023-12-20T06:25:04;2.90;;;2.80;;
5060;SDS011;2549;52.128;21.068;2023-12-20T06:27:32;2.72;;;2.55;;
5060;SDS011;2549;52.128;21.068;2023-12-20T06:29:59;3.63;;;2.75;;
5060;SDS011;2549;52.128;21.068;2023-12-20T06:32:26;4.07;;;2.42;;
5060;SDS011;2549;52.128;21.068;2023-12-20T06:34:55;2.70;;;2.58;;
5060;SDS011;2549;52.128;21.068;2023-12-20T06:37:22;4.90;;;2.67;;
5060;SDS011;2549;52.128;21.068;2023-12-20T06:39:49;3.67;;;3.28;;
5060;SDS011;2549;52.128;21.068;2023-12-20T06:42:16;2.80;;;2.60;;
5060;SDS011;2549;52.128;21.068;2023-12-20T06:44:43;3.38;;;2.67;;
5060;SDS011;2549;52.128;21.068;2023-12-20T06:47:09;5.50;;;3.13;;
5060;SDS011;2549;52.128;21.068;2023-12-20T06:49:37;3.60;;;3.30;;
5060;SDS011;2549;52.128;21.068;2023-12-20T06:52:04;5.85;;;3.05;;
5060;SDS011;2549;52.128;21.068;2023-12-20T06:54:31;6.30;;;3.00;;
5060;SDS011;2549;52.128;21.068;2023-12-20T06:56:58;3.05;;;2.85;;
5060;SDS011;2549;52.128;21.068;2023-12-20T06:59:25;3.28;;;2.80;;
5060;SDS011;2549;52.128;21.068;2023-12-20T07:01:52;3.00;;;2.80;;
5060;SDS011;2549;52.128;21.068;2023-12-20T07:04:19;3.30;;;3.00;;
5060;SDS011;2549;52.128;21.068;2023-12-20T07:06:48;2.65;;;2.55;;
5060;SDS011;2549;52.128;21.068;2023-12-20T07:09:18;2.80;;;2.70;;
5060;SDS011;2549;52.128;21.068;2023-12-20T07:11:45;5.00;;;2.97;;
5060;SDS011;2549;52.128;21.068;2023-12-20T07:14:12;5.22;;;3.55;;
5060;SDS011;2549;52.128;21.068;2023-12-20T07:16:39;3.47;;;3.17;;
5060;SDS011;2549;52.128;21.068;2023-12-20T07:19:06;3.58;;;3.28;;
5060;SDS011;2549;52.128;21.068;2023-12-20T07:21:33;6.40;;;2.97;;
5060;SDS011;2549;52.128;21.068;2023-12-20T07:24:00;4.00;;;3.28;;
5060;SDS011;2549;52.128;21.068;2023-12-20T07:26:27;2.85;;;2.75;;
5060;SDS011;2549;52.128;21.068;2023-12-20T07:28:54;4.75;;;3.67;;
5060;SDS011;2549;52.128;21.068;2023-12-20T07:31:21;3.55;;;3.25;;
5060;SDS011;2549;52.128;21.068;2023-12-20T07:33:50;3.45;;;3.10;;
5060;SDS011;2549;52.128;21.068;2023-12-20T07:36:17;3.78;;;3.47;;
5060;SDS011;2549;52.128;21.068;2023-12-20T07:38:45;3.38;;;3.13;;
5060;SDS011;2549;52.128;21.068;2023-12-20T07:41:12;3.40;;;3.20;;
5060;SDS011;2549;52.128;21.068;2023-12-20T07:43:39;3.50;;;3.20;;
5060;SDS011;2549;52.128;21.068;2023-12-20T07:46:06;3.67;;;3.28;;
5060;SDS011;2549;52.128;21.068;2023-12-20T07:48:34;3.90;;;3.58;;
5060;SDS011;2549;52.128;21.068;2023-12-20T07:51:02;4.85;;;3.28;;
5060;SDS011;2549;52.128;21.068;2023-12-20T07:53:30;3.75;;;2.90;;
5060;SDS011;2549;52.128;21.068;2023-12-20T07:55:57;4.57;;;3.70;;
5060;SDS011;2549;52.128;21.068;2023-12-20T07:58:23;5.32;;;4.05;;
5060;SDS011;2549;52.128;21.068;2023-12-20T08:01:10;12.95;;;3.78;;
5060;SDS011;2549;52.128;21.068;2023-12-20T08:03:38;4.93;;;3.40;;
5060;SDS011;2549;52.128;21.068;2023-12-20T08:06:05;4.60;;;3.58;;
5060;SDS011;2549;52.128;21.068;2023-12-20T08:08:32;3.40;;;3.13;;
5060;SDS011;2549;52.128;21.068;2023-12-20T08:10:59;3.53;;;3.22;;
5060;SDS011;2549;52.128;21.068;2023-12-20T08:13:26;3.40;;;3.05;;
5060;SDS011;2549;52.128;21.068;2023-12-20T08:15:53;3.90;;;3.10;;
5060;SDS011;2549;52.128;21.068;2023-12-20T08:18:22;3.35;;;3.05;;
5060;SDS011;2549;52.128;21.068;2023-12-20T08:20:49;3.45;;;3.15;;
5060;SDS011;2549;52.128;21.068;2023-12-20T08:23:19;2.85;;;2.70;;
5060;SDS011;2549;52.128;21.068;2023-12-20T08:25:50;8.65;;;3.05;;
5060;SDS011;2549;52.128;21.068;2023-12-20T08:28:17;3.38;;;3.08;;
5060;SDS011;2549;52.128;21.068;2023-12-20T08:30:44;2.70;;;2.50;;
5060;SDS011;2549;52.128;21.068;2023-12-20T08:33:12;4.22;;;2.90;;
5060;SDS011;2549;52.128;21.068;2023-12-20T08:35:39;5.13;;;3.35;;
5060;SDS011;2549;52.128;21.068;2023-12-20T08:38:06;3.47;;;2.42;;
5060;SDS011;2549;52.128;21.068;2023-12-20T08:40:33;5.28;;;2.85;;
5060;SDS011;2549;52.128;21.068;2023-12-20T08:43:00;2.90;;;2.47;;
5060;SDS011;2549;52.128;21.068;2023-12-20T08:45:27;3.25;;;3.05;;
5060;SDS011;2549;52.128;21.068;2023-12-20T08:47:54;2.63;;;2.53;;
5060;SDS011;2549;52.128;21.068;2023-12-20T08:50:25;4.20;;;3.17;;
5060;SDS011;2549;52.128;21.068;2023-12-20T08:52:52;2.50;;;2.30;;
5060;SDS011;2549;52.128;21.068;2023-12-20T08:55:19;3.30;;;3.03;;
5060;SDS011;2549;52.128;21.068;2023-12-20T08:57:46;3.17;;;2.97;;
5060;SDS011;2549;52.128;21.068;2023-12-20T09:00:14;3.83;;;2.67;;
5060;SDS011;2549;52.128;21.068;2023-12-20T09:02:41;12.13;;;3.30;;
5060;SDS011;2549;52.128;21.068;2023-12-20T09:05:08;4.40;;;3.47;;
5060;SDS011;2549;52.128;21.068;2023-12-20T09:07:35;3.75;;;3.28;;
5060;SDS011;2549;52.128;21.068;2023-12-20T09:10:02;4.40;;;3.55;;
5060;SDS011;2549;52.128;21.068;2023-12-20T09:12:30;3.55;;;3.25;;
5060;SDS011;2549;52.128;21.068;2023-12-20T09:14:57;7.28;;;2.88;;
5060;SDS011;2549;52.128;21.068;2023-12-20T09:17:24;4.28;;;2.75;;
5060;SDS011;2549;52.128;21.068;2023-12-20T09:19:51;4.13;;;3.30;;
5060;SDS011;2549;52.128;21.068;2023-12-20T09:22:20;7.00;;;3.55;;
5060;SDS011;2549;52.128;21.068;2023-12-20T09:24:47;3.30;;;3.00;;
5060;SDS011;2549;52.128;21.068;2023-12-20T09:27:14;3.10;;;2.83;;
5060;SDS011;2549;52.128;21.068;2023-12-20T09:29:41;3.00;;;2.75;;
5060;SDS011;2549;52.128;21.068;2023-12-20T09:32:08;3.50;;;3.10;;
5060;SDS011;2549;52.128;21.068;2023-12-20T09:34:35;3.55;;;2.63;;
5060;SDS011;2549;52.128;21.068;2023-12-20T09:37:04;2.80;;;2.65;;
5060;SDS011;2549;52.128;21.068;2023-12-20T09:39:32;3.78;;;3.13;;
5060;SDS011;2549;52.128;21.068;2023-12-20T09:44:31;2.97;;;2.67;;
5060;SDS011;2549;52.128;21.068;2023-12-20T09:46:59;3.15;;;2.85;;
5060;SDS011;2549;52.128;21.068;2023-12-20T09:49:30;3.70;;;3.40;;
5060;SDS011;2549;52.128;21.068;2023-12-20T09:51:59;3.20;;;3.00;;
5060;SDS011;2549;52.128;21.068;2023-12-20T09:54:28;3.78;;;3.33;;
5060;SDS011;2549;52.128;21.068;2023-12-20T09:56:55;4.93;;;3.40;;
5060;SDS011;2549;52.128;21.068;2023-12-20T09:59:22;4.03;;;3.67;;
5060;SDS011;2549;52.128;21.068;2023-12-20T10:01:49;3.57;;;3.23;;
5060;SDS011;2549;52.128;21.068;2023-12-20T10:04:23;3.80;;;3.45;;
5060;SDS011;2549;52.128;21.068;2023-12-20T10:06:55;3.20;;;3.00;;
5060;SDS011;2549;52.128;21.068;2023-12-20T10:09:23;3.67;;;3.38;;
5060;SDS011;2549;52.128;21.068;2023-12-20T10:11:53;3.20;;;3.00;;
5060;SDS011;2549;52.128;21.068;2023-12-20T10:14:21;2.88;;;2.63;;
5060;SDS011;2549;52.128;21.068;2023-12-20T10:16:49;2.80;;;2.60;;
5060;SDS011;2549;52.128;21.068;2023-12-20T10:19:17;3.38;;;2.97;;
5060;SDS011;2549;52.128;21.068;2023-12-20T10:21:47;3.30;;;3.00;;
5060;SDS011;2549;52.128;21.068;2023-12-20T10:24:17;2.92;;;2.50;;
5060;SDS011;2549;52.128;21.068;2023-12-20T10:26:44;3.20;;;3.00;;
5060;SDS011;2549;52.128;21.068;2023-12-20T10:29:11;3.00;;;2.80;;
5060;SDS011;2549;52.128;21.068;2023-12-20T10:31:38;3.03;;;2.67;;
5060;SDS011;2549;52.128;21.068;2023-12-20T10:34:05;2.70;;;2.50;;
5060;SDS011;2549;52.128;21.068;2023-12-20T10:36:32;4.00;;;2.60;;
5060;SDS011;2549;52.128;21.068;2023-12-20T10:39:00;2.60;;;2.50;;
5060;SDS011;2549;52.128;21.068;2023-12-20T10:41:30;2.70;;;2.58;;
5060;SDS011;2549;52.128;21.068;2023-12-20T10:46:28;2.38;;;2.28;;
5060;SDS011;2549;52.128;21.068;2023-12-20T10:48:56;3.42;;;2.58;;
5060;SDS011;2549;52.128;21.068;2023-12-20T10:51:24;2.58;;;2.38;;
5060;SDS011;2549;52.128;21.068;2023-12-20T10:53:56;2.25;;;2.10;;
5060;SDS011;2549;52.128;21.068;2023-12-20T10:56:23;2.45;;;2.25;;
5060;SDS011;2549;52.128;21.068;2023-12-20T10:58:51;2.90;;;2.30;;
5060;SDS011;2549;52.128;21.068;2023-12-20T11:01:19;2.08;;;1.95;;
5060;SDS011;2549;52.128;21.068;2023-12-20T11:03:53;2.50;;;2.30;;
5060;SDS011;2549;52.128;21.068;2023-12-20T11:09:12;2.55;;;2.35;;
5060;SDS011;2549;52.128;21.068;2023-12-20T11:12:03;2.28;;;1.92;;
5060;SDS011;2549;52.128;21.068;2023-12-20T11:14:41;2.72;;;2.25;;
5060;SDS011;2549;52.128;21.068;2023-12-20T11:17:13;4.00;;;2.30;;
5060;SDS011;2549;52.128;21.068;2023-12-20T11:22:22;2.10;;;2.00;;
5060;SDS011;2549;52.128;21.068;2023-12-20T11:24:54;1.33;;;1.33;;
5060;SDS011;2549;52.128;21.068;2023-12-20T11:27:30;1.90;;;1.80;;
5060;SDS011;2549;52.128;21.068;2023-12-20T11:29:57;2.05;;;1.67;;
5060;SDS011;2549;52.128;21.068;2023-12-20T11:34:55;1.70;;;1.60;;
5060;SDS011;2549;52.128;21.068;2023-12-20T11:37:29;1.83;;;1.70;;
5060;SDS011;2549;52.128;21.068;2023-12-20T11:40:05;3.00;;;2.03;;
5060;SDS011;2549;52.128;21.068;2023-12-20T11:42:38;2.17;;;2.03;;
5060;SDS011;2549;52.128;21.068;2023-12-20T11:45:24;3.08;;;2.03;;
5060;SDS011;2549;52.128;21.068;2023-12-20T11:47:56;1.65;;;1.63;;
5060;SDS011;2549;52.128;21.068;2023-12-20T11:50:24;2.75;;;1.70;;
5060;SDS011;2549;52.128;21.068;2023-12-20T11:52:52;2.15;;;2.05;;
5060;SDS011;2549;52.128;21.068;2023-12-20T11:55:21;2.40;;;2.20;;
5060;SDS011;2549;52.128;21.068;2023-12-20T11:57:50;3.63;;;2.25;;
5060;SDS011;2549;52.128;21.068;2023-12-20T12:00:18;2.78;;;1.92;;
5060;SDS011;2549;52.128;21.068;2023-12-20T12:02:55;2.58;;;2.00;;
5060;SDS011;2549;52.128;21.068;2023-12-20T12:05:25;2.70;;;2.17;;
5060;SDS011;2549;52.128;21.068;2023-12-20T12:07:52;1.98;;;1.80;;
5060;SDS011;2549;52.128;21.068;2023-12-20T12:10:19;3.40;;;2.25;;
5060;SDS011;2549;52.128;21.068;2023-12-20T12:12:49;3.53;;;1.85;;
5060;SDS011;2549;52.128;21.068;2023-12-20T12:15:16;1.95;;;1.85;;
5060;SDS011;2549;52.128;21.068;2023-12-20T12:17:43;2.30;;;2.15;;
5060;SDS011;2549;52.128;21.068;2023-12-20T12:20:10;3.67;;;2.10;;
5060;SDS011;2549;52.128;21.068;2023-12-20T12:22:38;1.70;;;1.60;;
5060;SDS011;2549;52.128;21.068;2023-12-20T12:25:11;2.50;;;2.00;;
5060;SDS011;2549;52.128;21.068;2023-12-20T12:27:40;1.80;;;1.70;;
5060;SDS011;2549;52.128;21.068;2023-12-20T12:30:09;1.70;;;1.60;;
5060;SDS011;2549;52.128;21.068;2023-12-20T12:32:36;1.80;;;1.70;;
5060;SDS011;2549;52.128;21.068;2023-12-20T12:35:04;5.07;;;1.90;;
5060;SDS011;2549;52.128;21.068;2023-12-20T12:37:37;1.92;;;1.83;;
5060;SDS011;2549;52.128;21.068;2023-12-20T12:40:15;1.80;;;1.70;;
5060;SDS011;2549;52.128;21.068;2023-12-20T12:42:44;4.10;;;1.98;;
5060;SDS011;2549;52.128;21.068;2023-12-20T12:45:11;1.48;;;1.40;;
5060;SDS011;2549;52.128;21.068;2023-12-20T12:47:38;1.50;;;1.40;;
5060;SDS011;2549;52.128;21.068;2023-12-20T12:50:06;2.05;;;1.95;;
5060;SDS011;2549;52.128;21.068;2023-12-20T12:52:33;2.00;;;1.85;;
5060;SDS011;2549;52.128;21.068;2023-12-20T12:55:01;2.10;;;1.67;;
5060;SDS011;2549;52.128;21.068;2023-12-20T12:57:29;4.55;;;1.55;;
5060;SDS011;2549;52.128;21.068;2023-12-20T12:59:56;1.83;;;1.73;;
5060;SDS011;2549;52.128;21.068;2023-12-20T13:02:24;3.17;;;1.70;;
5060;SDS011;2549;52.128;21.068;2023-12-20T13:04:51;2.13;;;1.65;;
5060;SDS011;2549;52.128;21.068;2023-12-20T13:07:18;2.00;;;1.85;;
5060;SDS011;2549;52.128;21.068;2023-12-20T13:09:45;3.92;;;2.10;;
5060;SDS011;2549;52.128;21.068;2023-12-20T13:12:13;2.78;;;2.50;;
5060;SDS011;2549;52.128;21.068;2023-12-20T13:14:39;4.68;;;2.17;;
5060;SDS011;2549;52.128;21.068;2023-12-20T13:17:07;3.30;;;2.40;;
5060;SDS011;2549;52.128;21.068;2023-12-20T13:19:34;2.70;;;2.50;;
5060;SDS011;2549;52.128;21.068;2023-12-20T13:22:01;2.95;;;1.95;;
5060;SDS011;2549;52.128;21.068;2023-12-20T13:24:28;3.30;;;2.50;;
5060;SDS011;2549;52.128;21.068;2023-12-20T13:26:55;3.35;;;2.80;;
5060;SDS011;2549;52.128;21.068;2023-12-20T13:29:23;2.80;;;2.45;;
5060;SDS011;2549;52.128;21.068;2023-12-20T13:31:53;4.50;;;2.70;;
5060;SDS011;2549;52.128;21.068;2023-12-20T13:34:21;3.08;;;2.83;;
5060;SDS011;2549;52.128;21.068;2023-12-20T13:36:48;3.75;;;2.90;;
5060;SDS011;2549;52.128;21.068;2023-12-20T13:39:17;4.32;;;3.22;;
5060;SDS011;2549;52.128;21.068;2023-12-20T13:41:44;3.85;;;2.58;;
5060;SDS011;2549;52.128;21.068;2023-12-20T13:44:11;5.15;;;2.28;;
5060;SDS011;2549;52.128;21.068;2023-12-20T13:46:39;5.00;;;3.13;;
5060;SDS011;2549;52.128;21.068;2023-12-20T13:49:07;3.55;;;3.03;;
5060;SDS011;2549;52.128;21.068;2023-12-20T13:51:34;3.95;;;3.20;;
5060;SDS011;2549;52.128;21.068;2023-12-20T13:54:01;5.25;;;3.58;;
5060;SDS011;2549;52.128;21.068;2023-12-20T13:56:27;4.22;;;3.40;;
5060;SDS011;2549;52.128;21.068;2023-12-20T13:58:54;2.88;;;2.42;;
5060;SDS011;2549;52.128;21.068;2023-12-20T14:01:22;3.25;;;2.70;;
5060;SDS011;2549;52.128;21.068;2023-12-20T14:03:50;5.30;;;3.58;;
5060;SDS011;2549;52.128;21.068;2023-12-20T14:06:16;3.00;;;2.80;;
5060;SDS011;2549;52.128;21.068;2023-12-20T14:08:44;3.13;;;2.92;;
5060;SDS011;2549;52.128;21.068;2023-12-20T14:11:11;3.13;;;2.63;;
5060;SDS011;2549;52.128;21.068;2023-12-20T14:13:38;4.25;;;2.35;;
5060;SDS011;2549;52.128;21.068;2023-12-20T14:16:05;4.07;;;2.80;;
5060;SDS011;2549;52.128;21.068;2023-12-20T14:18:32;4.05;;;2.45;;
5060;SDS011;2549;52.128;21.068;2023-12-20T14:20:59;6.70;;;3.17;;
5060;SDS011;2549;52.128;21.068;2023-12-20T14:23:26;9.98;;;3.30;;
5060;SDS011;2549;52.128;21.068;2023-12-20T14:25:53;6.65;;;3.20;;
5060;SDS011;2549;52.128;21.068;2023-12-20T14:28:22;4.60;;;2.60;;
5060;SDS011;2549;52.128;21.068;2023-12-20T14:30:49;2.67;;;2.47;;
5060;SDS011;2549;52.128;21.068;2023-12-20T14:33:16;2.95;;;2.30;;
5060;SDS011;2549;52.128;21.068;2023-12-20T14:35:43;3.55;;;2.45;;
5060;SDS011;2549;52.128;21.068;2023-12-20T14:38:11;3.45;;;2.65;;
5060;SDS011;2549;52.128;21.068;2023-12-20T14:40:41;4.45;;;2.63;;
5060;SDS011;2549;52.128;21.068;2023-12-20T14:43:08;8.95;;;2.55;;
5060;SDS011;2549;52.128;21.068;2023-12-20T14:45:35;2.97;;;2.00;;
5060;SDS011;2549;52.128;21.068;2023-12-20T14:48:02;6.53;;;2.22;;
5060;SDS011;2549;52.128;21.068;2023-12-20T14:50:29;8.70;;;2.83;;
5060;SDS011;2549;52.128;21.068;2023-12-20T14:52:56;4.28;;;2.45;;
5060;SDS011;2549;52.128;21.068;2023-12-20T14:55:23;4.93;;;2.00;;
5060;SDS011;2549;52.128;21.068;2023-12-20T14:57:53;5.03;;;2.70;;
5060;SDS011;2549;52.128;21.068;2023-12-20T15:00:20;7.63;;;2.65;;
5060;SDS011;2549;52.128;21.068;2023-12-20T15:02:46;2.55;;;2.35;;
5060;SDS011;2549;52.128;21.068;2023-12-20T15:05:13;2.80;;;2.60;;
5060;SDS011;2549;52.128;21.068;2023-12-20T15:07:41;4.15;;;2.58;;
5060;SDS011;2549;52.128;21.068;2023-12-20T15:10:08;5.38;;;2.28;;
5060;SDS011;2549;52.128;21.068;2023-12-20T15:12:35;7.80;;;2.40;;
5060;SDS011;2549;52.128;21.068;2023-12-20T15:15:02;4.20;;;2.22;;
5060;SDS011;2549;52.128;21.068;2023-12-20T15:17:30;5.75;;;2.40;;